Decoded Metar for PAMO (MOUNTAIN VILLAGE in AK, USA) (IATA:MOU) | Meteo·Mobile Aviation Weather
aviador You're here:

PAMO Decoded Metar

MOUNTAIN VILLAGE in AK, USA
Report Time2020-02-25 21:02:00
UTC Time2020-02-25 21:16:28
Flight Rules vfr VFR
Wind020° at 15 kt
W.Decomp.*RWY 02: 14.6 kt HW 3.6 kt LCW
Visibility9999 m
Phenomena:N/A
Clouds:N/A
Expected CloudBase > 2,800 ft AGL from Temp-Dew spread
CeilingNone
Temp-9°C (ISA -23)
Dew Point-16°C (57% RH)
AAT-17.8°C
QNH1015 hPa
Density Alt-2,615 ft
Elevation338 ft
Report Wrong Elevation
Raw Report
PAMO 252102Z AUTO 02015KT 10SM CLR M09/M16 A2996 RMK AO2 SLP155
T10941161 56012 FZRANO=

Extra information for PAMO:More info

Metar Taf Metar & Taf Last 4 Metars F.Rules Stats Wind Profile Meteogram Temp Stats Airport Information Weather charts Add Link Nearby VenuesMetar ALERT Operation Metar Decoded Social comments

AIRNAV info for PAMO